Aérodrome :
LOGIN :

S'inscrire | Disclaimer

   EN    FR    IT 

 










Légende :    VFR   VFR Marginal   IFR   IFR Intensif   IFR Très Intensif
Visi : 
Plafond : 
>= 8 km
>= 3000ft
5 à 8 km
1000 à 3000 ft
1500m à 5 km
500 à 1000 ft
800 à 1500m
200 à 500 ft
< 800m
< 200 ft
Symboles :   Orages  Brouillard  Fortes neiges  Fortes précipitations  Vent > 20 kt
SIGMETs :   Divers  Orages  Givrage  Turbulence  Onde Orograph.  Cendres Volcan.







- Altitude de l'aérodrome : 587 ft
- Code IATA : XCR
- Voir les cartes d'approche


LFOK - Chalons Vatry

DERNIER METAR :
  • 181600Z AUTO 33005KT 290V010 CAVOK 25/11 Q1022 NOSIG

METARs EXPIRÉS :
  • 181530Z AUTO 30005KT 260V350 CAVOK 25/10 Q1022 NOSIG
  • 181500Z AUTO 31004KT 220V030 CAVOK 25/11 Q1022 NOSIG
  • 181430Z AUTO 34005KT 270V040 CAVOK 25/11 Q1022 NOSIG
  • 181400Z AUTO 31008KT 270V070 CAVOK 25/11 Q1023 NOSIG
  • 181330Z AUTO 27005KT 220V330 CAVOK 24/10 Q1023 NOSIG

TAF TAF LFOK
Valide du 18 à 12h jusqu'au 19 à 12h UTC


181100Z 1812/1912 33005KT CAVOK
TEMPO 1903/1906 3000 BR
Pas de NOTAMs connus pour ce terrain.



MET'MAP, la Météo Aéronautique d'un coup d'oeil ! - Copyright ORBIFLY Décembre 2007 - Disclaimer

ORBIFLY MET'MAP TEAM :

Programmation & Développement : Alexandra Zaïnal
Conception & Développement : Baudouin d'Aumeries
Co-Programmation & Développement : Marc-Olivier Méhu
Soutien technique & logistique : Manuel Goepfert

Contact : metmap@orbifly.com




SOURCES & CREDITS :

   NOAA